Time;durP1;ratioP1;P1;durP2;ratioP2;P2;SDS_P1;SDS_P2;PMS_P1;PMS_P2;Temp;Humidity;BMP_temperature;BMP_pressure;BME280_temperature;BME280_humidity;BME280_pressure;Samples;Min_cycle;Max_cycle;Signal;HPM_P1;HPM_P2
2023/04/05 00:00:38;;;;;;;6.00;3.38;;;6.20;85.70;;;;;;4990302;28;20462;-86
2023/04/05 00:03:04;;;;;;;6.60;3.70;;;6.20;85.70;;;;;;4986521;28;20123;-85
2023/04/05 00:05:30;;;;;;;6.05;3.00;;;6.10;85.70;;;;;;4979923;28;20037;-87
2023/04/05 00:07:58;;;;;;;8.57;3.30;;;6.10;85.90;;;;;;4997149;28;20017;-86
2023/04/05 00:10:23;;;;;;;5.18;3.10;;;6.00;86.10;;;;;;4979042;28;20025;-86
2023/04/05 00:12:50;;;;;;;5.78;3.05;;;6.00;86.10;;;;;;5007700;28;20052;-85
2023/04/05 00:15:15;;;;;;;6.77;2.90;;;6.00;86.30;;;;;;4992546;28;20119;-87
2023/04/05 00:17:42;;;;;;;5.75;3.13;;;5.90;86.40;;;;;;4973263;28;20083;-85
2023/04/05 00:20:11;;;;;;;4.93;3.00;;;5.90;86.30;;;;;;5028804;28;20657;-87
2023/04/05 00:22:37;;;;;;;7.75;3.35;;;5.90;86.30;;;;;;4992155;28;20033;-85
2023/04/05 00:25:04;;;;;;;6.30;3.13;;;5.80;86.30;;;;;;4992058;28;20094;-87
2023/04/05 00:27:30;;;;;;;5.88;3.13;;;5.80;86.50;;;;;;5004183;28;20017;-84
2023/04/05 00:29:55;;;;;;;6.72;3.05;;;5.70;86.60;;;;;;5014075;28;20147;-87
2023/04/05 00:32:21;;;;;;;5.63;2.73;;;5.70;86.60;;;;;;4977127;28;20390;-87
2023/04/05 00:34:48;;;;;;;5.70;3.03;;;5.60;86.70;;;;;;5011757;28;20025;-86
2023/04/05 00:37:13;;;;;;;5.28;2.90;;;5.60;87.50;;;;;;5006513;28;20033;-87
2023/04/05 00:39:39;;;;;;;5.30;3.10;;;5.60;86.90;;;;;;5000922;28;20546;-85
2023/04/05 00:42:05;;;;;;;5.17;3.10;;;5.50;86.90;;;;;;5015880;28;20618;-86
2023/04/05 00:44:33;;;;;;;5.00;2.95;;;5.50;87.00;;;;;;4989886;28;20285;-86
2023/04/05 00:47:09;;;;;;;6.30;2.90;;;5.50;87.20;;;;;;5014394;28;20078;-84
2023/04/05 00:49:36;;;;;;;6.83;3.27;;;5.50;87.20;;;;;;4976645;28;20033;-84
2023/04/05 00:52:03;;;;;;;6.60;3.10;;;5.40;87.20;;;;;;4988123;28;20508;-85
2023/04/05 00:54:29;;;;;;;5.53;2.70;;;5.30;87.20;;;;;;4996883;28;20575;-85
2023/04/05 00:56:56;;;;;;;5.18;3.00;;;5.30;87.30;;;;;;4994161;28;20061;-87
2023/04/05 00:59:22;;;;;;;5.82;3.35;;;5.30;87.50;;;;;;4991428;28;20025;-87
2023/04/05 01:02:07;;;;;;;5.20;2.90;;;5.20;88.20;;;;;;5018234;28;20028;-85
2023/04/05 01:04:35;;;;;;;6.43;3.20;;;5.20;87.60;;;;;;4982750;28;20242;-85
2023/04/05 01:07:04;;;;;;;6.70;3.33;;;5.10;87.60;;;;;;5003298;28;20032;-85
2023/04/05 01:09:49;;;;;;;5.95;3.25;;;5.10;87.50;;;;;;4986421;28;20124;-85
2023/04/05 01:12:17;;;;;;;6.05;2.97;;;5.10;87.70;;;;;;4995665;28;20040;-87
2023/04/05 01:14:51;;;;;;;6.03;3.17;;;5.10;87.70;;;;;;4996788;28;20604;-85
2023/04/05 01:17:23;;;;;;;6.45;3.17;;;5.10;87.80;;;;;;5010090;28;20514;-87
2023/04/05 01:19:57;;;;;;;5.28;3.10;;;5.00;87.70;;;;;;5001749;28;20027;-87
2023/04/05 01:22:42;;;;;;;6.10;3.08;;;5.00;87.70;;;;;;4984985;28;20025;-86
2023/04/05 01:25:43;;;;;;;5.45;2.97;;;5.00;87.70;;;;;;5001746;28;20025;-87
2023/04/05 01:28:22;;;;;;;5.53;3.00;;;4.90;87.70;;;;;;5021953;28;20045;-87
2023/04/05 01:31:05;;;;;;;4.88;2.80;;;4.90;87.60;;;;;;5001372;28;20033;-86
2023/04/05 01:33:46;;;;;;;5.43;2.80;;;4.80;87.60;;;;;;5031416;28;20248;-85
2023/04/05 01:36:18;;;;;;;5.57;2.80;;;4.80;87.70;;;;;;4981393;28;20028;-87
2023/04/05 01:38:48;;;;;;;4.97;3.03;;;4.70;87.80;;;;;;4989376;28;20091;-86
2023/04/05 01:41:14;;;;;;;6.03;3.13;;;4.70;87.70;;;;;;5002520;28;20029;-87
2023/04/05 01:43:40;;;;;;;7.80;3.10;;;4.70;87.70;;;;;;4987754;28;20033;-85
2023/04/05 01:46:06;;;;;;;5.73;3.27;;;4.70;87.80;;;;;;5005676;28;20024;-85
2023/04/05 01:48:31;;;;;;;4.77;2.87;;;4.60;87.80;;;;;;5000665;28;20367;-84
2023/04/05 01:50:57;;;;;;;5.80;3.28;;;4.60;87.90;;;;;;5001027;28;20087;-85
2023/04/05 01:53:24;;;;;;;6.30;3.00;;;4.60;88.00;;;;;;4967567;28;20128;-87
2023/04/05 01:55:49;;;;;;;5.75;2.97;;;4.50;88.00;;;;;;4997898;28;20083;-87
2023/04/05 01:58:15;;;;;;;6.00;3.00;;;4.50;88.00;;;;;;4988358;28;20021;-87
2023/04/05 02:00:41;;;;;;;5.68;3.28;;;4.40;88.00;;;;;;5024556;28;20762;-85
2023/04/05 02:03:06;;;;;;;5.73;3.13;;;4.40;88.10;;;;;;5022075;28;20538;-87
2023/04/05 02:05:32;;;;;;;6.83;3.43;;;4.40;88.20;;;;;;4999514;28;20031;-85
2023/04/05 02:07:57;;;;;;;6.78;3.20;;;4.30;88.20;;;;;;4978414;28;20025;-86
2023/04/05 02:10:23;;;;;;;6.83;3.03;;;4.30;88.40;;;;;;5020059;28;20258;-86
2023/04/05 02:12:50;;;;;;;6.30;3.38;;;4.30;88.50;;;;;;4999508;28;20067;-85
2023/04/05 02:15:15;;;;;;;6.65;3.20;;;4.30;88.50;;;;;;4997792;28;20400;-86
2023/04/05 02:17:44;;;;;;;5.33;2.90;;;4.30;88.60;;;;;;5017446;28;20021;-85
2023/04/05 02:20:11;;;;;;;9.05;3.53;;;4.20;88.50;;;;;;5006886;28;20067;-86
2023/04/05 02:22:38;;;;;;;6.88;3.75;;;4.20;88.40;;;;;;4984223;28;20468;-85
2023/04/05 02:25:07;;;;;;;6.63;3.17;;;4.20;88.50;;;;;;5009502;28;20031;-87
2023/04/05 02:27:33;;;;;;;7.78;3.50;;;4.10;88.40;;;;;;4997588;28;20025;-86
2023/04/05 02:29:59;;;;;;;7.23;3.57;;;4.10;88.50;;;;;;4994861;28;20063;-86
2023/04/05 02:32:24;;;;;;;7.68;3.80;;;4.10;88.60;;;;;;5004335;28;20286;-86
2023/04/05 02:34:51;;;;;;;7.30;3.97;;;4.00;88.70;;;;;;5001848;28;20074;-86
2023/04/05 02:37:18;;;;;;;7.55;3.70;;;4.00;88.70;;;;;;4994528;28;20034;-85
2023/04/05 02:39:44;;;;;;;6.80;3.70;;;4.00;88.80;;;;;;5003234;28;20052;-86
2023/04/05 02:42:09;;;;;;;8.70;3.80;;;4.00;88.80;;;;;;5004262;28;20478;-87
2023/04/05 02:44:35;;;;;;;8.23;4.30;;;4.00;88.90;;;;;;4989381;28;20021;-86
2023/04/05 02:47:01;;;;;;;6.75;3.78;;;4.00;89.00;;;;;;5011327;28;20508;-87
2023/04/05 02:49:27;;;;;;;7.37;4.03;;;3.90;88.90;;;;;;4997321;28;20029;-86
2023/04/05 02:51:54;;;;;;;6.30;3.40;;;3.90;89.00;;;;;;5017250;28;20026;-86
2023/04/05 02:54:20;;;;;;;8.30;3.80;;;3.90;88.90;;;;;;4982155;28;20262;-85
2023/04/05 02:56:46;;;;;;;8.90;4.00;;;3.90;89.00;;;;;;5014417;28;20104;-86
2023/04/05 02:59:12;;;;;;;9.20;4.20;;;3.80;89.00;;;;;;4974192;28;20618;-86
2023/04/05 03:01:42;;;;;;;7.17;4.10;;;3.80;89.00;;;;;;5005738;28;20021;-87
2023/04/05 03:04:11;;;;;;;7.75;4.18;;;3.80;89.00;;;;;;5014889;28;20038;-86
2023/04/05 03:06:37;;;;;;;6.57;4.00;;;3.70;89.00;;;;;;5018296;28;20025;-87
2023/04/05 03:09:03;;;;;;;7.90;4.10;;;3.80;89.20;;;;;;4992618;28;20406;-86
2023/04/05 03:11:30;;;;;;;8.47;4.37;;;3.70;89.30;;;;;;5013770;28;20581;-86
2023/04/05 03:13:56;;;;;;;8.75;4.38;;;3.70;89.30;;;;;;4987412;28;20028;-86
2023/04/05 03:16:21;;;;;;;8.02;4.10;;;3.60;89.30;;;;;;4993932;28;20017;-86
2023/04/05 03:18:50;;;;;;;8.73;4.43;;;3.60;89.40;;;;;;5008413;28;20071;-87
2023/04/05 03:21:16;;;;;;;7.63;4.17;;;3.60;89.60;;;;;;5012263;28;20329;-87
2023/04/05 03:23:45;;;;;;;7.13;3.97;;;3.60;89.50;;;;;;4980378;28;20060;-87
2023/04/05 03:26:14;;;;;;;7.97;4.05;;;3.60;89.60;;;;;;5023227;28;20335;-87
2023/04/05 03:28:43;;;;;;;6.38;3.70;;;3.60;89.60;;;;;;4991120;28;20336;-85
2023/04/05 03:31:10;;;;;;;7.78;3.88;;;3.50;89.50;;;;;;4988555;28;20027;-87
2023/04/05 03:33:36;;;;;;;6.50;3.90;;;3.50;89.50;;;;;;5009477;28;20391;-85
2023/04/05 03:36:01;;;;;;;8.10;3.65;;;3.50;89.60;;;;;;5022156;28;20036;-86
2023/04/05 03:38:27;;;;;;;7.88;4.00;;;3.40;89.50;;;;;;4979484;28;20037;-87
2023/04/05 03:40:53;;;;;;;6.67;3.63;;;3.40;89.50;;;;;;4999929;28;20387;-86
2023/04/05 03:43:19;;;;;;;6.70;3.95;;;3.40;89.50;;;;;;5021217;28;20070;-87
2023/04/05 03:45:44;;;;;;;6.50;3.67;;;3.40;89.50;;;;;;4997635;28;20025;-86
2023/04/05 03:48:10;;;;;;;7.32;3.78;;;3.40;89.50;;;;;;5015571;28;20583;-86
2023/04/05 03:50:36;;;;;;;6.57;4.07;;;3.30;89.50;;;;;;4989735;28;20025;-86
2023/04/05 03:53:02;;;;;;;8.25;3.90;;;3.30;89.50;;;;;;5034607;28;20025;-85
2023/04/05 03:55:27;;;;;;;6.97;3.70;;;3.30;89.50;;;;;;4981302;28;20025;-86
2023/04/05 03:57:53;;;;;;;7.25;3.90;;;3.20;89.60;;;;;;5006602;28;20108;-86
2023/04/05 04:00:22;;;;;;;9.20;4.30;;;3.20;89.60;;;;;;4993512;28;20431;-87
2023/04/05 04:02:49;;;;;;;7.63;4.10;;;3.10;89.70;;;;;;4982242;28;20032;-86
2023/04/05 04:05:16;;;;;;;6.88;3.60;;;3.10;89.70;;;;;;5025341;28;20144;-86
2023/04/05 04:07:43;;;;;;;6.70;3.70;;;3.10;89.70;;;;;;5007865;28;20025;-86
2023/04/05 04:10:11;;;;;;;6.63;3.83;;;3.10;89.80;;;;;;4980068;28;20036;-85
2023/04/05 04:12:37;;;;;;;7.60;4.15;;;3.00;89.90;;;;;;5014254;28;20025;-87
2023/04/05 04:15:03;;;;;;;6.93;3.90;;;3.00;89.90;;;;;;5005624;28;20025;-86
2023/04/05 04:17:35;;;;;;;7.50;4.10;;;3.00;90.00;;;;;;4991926;28;20085;-86
2023/04/05 04:20:06;;;;;;;7.70;4.00;;;3.00;90.00;;;;;;5011671;28;20080;-86
2023/04/05 04:22:32;;;;;;;7.88;4.10;;;3.00;90.00;;;;;;4989173;28;20052;-86
2023/04/05 04:25:02;;;;;;;8.90;4.23;;;2.90;90.00;;;;;;5000204;28;20060;-87
2023/04/05 04:27:29;;;;;;;7.65;4.10;;;2.90;90.00;;;;;;4995077;28;20025;-86
2023/04/05 04:29:55;;;;;;;7.47;4.10;;;2.90;90.00;;;;;;5004185;28;20313;-85
2023/04/05 04:32:26;;;;;;;7.78;4.10;;;2.90;90.00;;;;;;4994005;28;20603;-85
2023/04/05 04:34:54;;;;;;;7.37;3.90;;;2.90;90.00;;;;;;4993966;28;20134;-86
2023/04/05 04:37:21;;;;;;;7.03;3.85;;;2.90;90.00;;;;;;4989925;28;20028;-86
2023/04/05 04:39:48;;;;;;;7.90;4.00;;;2.80;90.00;;;;;;5010320;28;20044;-86
2023/04/05 04:42:18;;;;;;;8.55;4.10;;;2.80;90.10;;;;;;4996032;28;20021;-86
2023/04/05 04:44:44;;;;;;;7.70;3.97;;;2.80;90.10;;;;;;4985297;28;20029;-86
2023/04/05 04:47:12;;;;;;;8.57;3.87;;;2.80;90.10;;;;;;5001587;28;20513;-86
2023/04/05 04:49:41;;;;;;;7.72;4.30;;;2.80;90.20;;;;;;4987944;28;20028;-87
2023/04/05 04:52:07;;;;;;;7.93;4.25;;;2.80;90.20;;;;;;4994680;28;20498;-85
2023/04/05 04:54:34;;;;;;;7.47;4.03;;;2.80;90.20;;;;;;4996364;28;20123;-86
2023/04/05 04:57:01;;;;;;;6.45;3.75;;;2.70;90.20;;;;;;5012571;28;20400;-86
2023/04/05 04:59:27;;;;;;;7.55;3.75;;;2.70;90.20;;;;;;5013667;28;20391;-86
2023/04/05 05:01:52;;;;;;;7.97;3.90;;;2.70;90.20;;;;;;4993021;28;20273;-87
2023/04/05 05:04:18;;;;;;;7.23;3.60;;;2.70;90.30;;;;;;4985911;28;21129;-85
2023/04/05 05:06:44;;;;;;;8.05;4.10;;;2.70;90.30;;;;;;5033737;28;20037;-87
2023/04/05 05:09:09;;;;;;;6.53;4.00;;;2.70;90.30;;;;;;4988009;28;20037;-86
2023/04/05 05:11:35;;;;;;;7.45;3.83;;;2.70;90.30;;;;;;5008278;28;20025;-86
2023/04/05 05:14:01;;;;;;;6.20;3.80;;;2.70;90.30;;;;;;4975711;28;20024;-86
2023/04/05 05:16:26;;;;;;;7.50;3.97;;;2.70;90.30;;;;;;5004231;28;20301;-85
2023/04/05 05:18:53;;;;;;;7.30;3.83;;;2.60;90.30;;;;;;5001137;28;20116;-86
2023/04/05 05:21:19;;;;;;;7.10;3.85;;;2.60;90.30;;;;;;4987488;28;20664;-86
2023/04/05 05:23:45;;;;;;;6.80;3.88;;;2.60;90.40;;;;;;4984095;28;20025;-86
2023/04/05 05:26:13;;;;;;;6.68;4.00;;;2.60;90.40;;;;;;5030759;28;20167;-86
2023/04/05 05:28:39;;;;;;;8.43;4.15;;;2.60;90.40;;;;;;4971604;28;20046;-86
2023/04/05 05:31:05;;;;;;;7.47;4.00;;;2.60;90.50;;;;;;4999023;28;20538;-86
2023/04/05 05:33:31;;;;;;;7.68;3.85;;;2.60;90.50;;;;;;4981690;28;20273;-86
2023/04/05 05:35:57;;;;;;;5.90;3.45;;;2.70;90.60;;;;;;5015088;28;20108;-86
2023/04/05 05:38:22;;;;;;;6.90;3.77;;;2.60;90.60;;;;;;5020221;28;20086;-86
2023/04/05 05:40:53;;;;;;;8.15;4.05;;;2.70;90.70;;;;;;5001034;28;20021;-86
2023/04/05 05:43:19;;;;;;;7.65;3.67;;;2.70;90.80;;;;;;4996377;28;21185;-86
2023/04/05 05:45:45;;;;;;;7.40;3.83;;;2.70;90.80;;;;;;4997414;28;20390;-86
2023/04/05 05:48:11;;;;;;;6.53;3.90;;;2.70;90.80;;;;;;4991580;28;20026;-86
2023/04/05 05:50:38;;;;;;;8.23;3.80;;;2.70;91.20;;;;;;4997487;28;20025;-85
2023/04/05 05:53:04;;;;;;;7.38;3.70;;;2.80;91.00;;;;;;5011138;28;20053;-86
2023/04/05 05:55:30;;;;;;;7.13;3.60;;;2.80;91.00;;;;;;4984046;28;20094;-86
2023/04/05 05:57:55;;;;;;;6.57;3.72;;;2.80;91.00;;;;;;5013272;28;20021;-86
2023/04/05 06:00:21;;;;;;;6.83;3.70;;;2.90;91.10;;;;;;4991066;28;20148;-86
2023/04/05 06:02:49;;;;;;;7.38;3.88;;;2.90;91.10;;;;;;4984419;28;20029;-86
2023/04/05 06:05:15;;;;;;;7.03;3.60;;;2.90;91.20;;;;;;5003287;28;20035;-86
2023/04/05 06:07:40;;;;;;;7.00;3.90;;;3.00;91.30;;;;;;4997967;28;20029;-86
2023/04/05 06:10:07;;;;;;;6.85;4.18;;;3.00;91.40;;;;;;5007986;28;20456;-86
2023/04/05 06:12:33;;;;;;;8.57;4.60;;;3.10;91.50;;;;;;4990806;28;21073;-86
2023/04/05 06:15:00;;;;;;;7.60;4.40;;;3.10;91.50;;;;;;5008602;28;20376;-86
2023/04/05 06:17:26;;;;;;;9.00;4.70;;;3.20;91.60;;;;;;4962877;28;23869;-86
2023/04/05 06:19:52;;;;;;;9.10;4.67;;;3.20;91.70;;;;;;4987475;28;20105;-85
2023/04/05 06:22:18;;;;;;;8.07;4.35;;;3.30;91.80;;;;;;4992819;28;20029;-85
2023/04/05 06:24:44;;;;;;;9.18;4.50;;;3.40;91.90;;;;;;5011213;28;20601;-86
2023/04/05 06:27:09;;;;;;;7.77;4.37;;;3.50;92.40;;;;;;4995305;28;20037;-86
2023/04/05 06:29:35;;;;;;;8.63;4.80;;;3.60;92.10;;;;;;5026035;28;20051;-85
2023/04/05 06:32:01;;;;;;;8.65;4.53;;;3.70;92.20;;;;;;4983378;28;20036;-85
2023/04/05 06:34:26;;;;;;;8.73;5.00;;;3.80;92.30;;;;;;4987079;28;20021;-85
2023/04/05 06:36:52;;;;;;;9.40;5.40;;;3.90;92.50;;;;;;5003961;28;20047;-86
2023/04/05 06:39:18;;;;;;;9.60;5.03;;;4.00;92.80;;;;;;4991197;28;20173;-86
2023/04/05 06:41:44;;;;;;;10.55;5.60;;;4.20;93.00;;;;;;5000544;28;20029;-86
2023/04/05 06:44:10;;;;;;;9.45;5.00;;;4.40;93.20;;;;;;4981180;28;20025;-86
2023/04/05 06:46:35;;;;;;;9.80;5.67;;;4.60;93.60;;;;;;5015802;28;20120;-86
2023/04/05 06:49:01;;;;;;;10.45;5.07;;;5.00;94.20;;;;;;4963481;28;20044;-86
2023/04/05 06:51:27;;;;;;;12.20;5.60;;;5.30;94.80;;;;;;4985841;28;20425;-86
2023/04/05 06:53:54;;;;;;;7.75;4.63;;;5.70;95.30;;;;;;4995430;28;20040;-87
2023/04/05 06:56:20;;;;;;;7.55;4.50;;;6.10;95.50;;;;;;4982645;28;20727;-87
2023/04/05 06:58:46;;;;;;;8.73;4.90;;;6.50;95.60;;;;;;5001433;28;20017;-86
2023/04/05 07:01:12;;;;;;;8.80;5.25;;;6.90;95.60;;;;;;4991727;28;20017;-87
2023/04/05 07:03:38;;;;;;;8.93;5.13;;;7.30;95.80;;;;;;4996104;28;20017;-85
2023/04/05 07:06:04;;;;;;;8.77;5.33;;;7.70;95.90;;;;;;5009106;28;20536;-87
2023/04/05 07:08:31;;;;;;;8.63;5.05;;;8.00;96.00;;;;;;4983757;28;20321;-87
2023/04/05 07:10:57;;;;;;;9.45;5.55;;;8.40;96.00;;;;;;5009106;28;20083;-87
2023/04/05 07:13:24;;;;;;;7.90;5.43;;;8.70;96.30;;;;;;4992589;28;20035;-87
2023/04/05 07:15:50;;;;;;;7.93;5.13;;;9.10;96.40;;;;;;4999919;28;20104;-87
2023/04/05 07:18:17;;;;;;;7.90;5.00;;;9.50;96.70;;;;;;4994096;28;20080;-87
2023/04/05 07:20:46;;;;;;;8.90;4.78;;;10.00;96.90;;;;;;4987590;28;20036;-87
2023/04/05 07:23:11;;;;;;;7.85;5.55;;;10.40;97.00;;;;;;5013060;28;20048;-88
2023/04/05 07:25:39;;;;;;;7.63;5.00;;;10.90;97.30;;;;;;5000277;28;20533;-86
2023/04/05 07:28:05;;;;;;;8.65;5.30;;;11.40;96.90;;;;;;4993078;28;20044;-88
2023/04/05 07:30:30;;;;;;;9.18;5.75;;;11.90;96.90;;;;;;4987545;28;20474;-86
2023/04/05 07:32:57;;;;;;;8.97;5.33;;;12.30;96.60;;;;;;5013175;28;20063;-88
2023/04/05 07:35:23;;;;;;;8.75;5.97;;;12.70;96.40;;;;;;4962620;28;20259;-88
2023/04/05 07:37:48;;;;;;;9.80;6.50;;;13.10;96.20;;;;;;4991232;28;20028;-86
2023/04/05 07:40:14;;;;;;;8.87;6.30;;;13.60;96.00;;;;;;5012960;28;20052;-88
2023/04/05 07:42:40;;;;;;;9.25;6.47;;;14.00;95.90;;;;;;5010812;28;20079;-87
2023/04/05 07:45:06;;;;;;;8.00;6.07;;;14.40;95.80;;;;;;4993631;28;20029;-87
2023/04/05 07:47:35;;;;;;;9.18;5.70;;;14.70;95.30;;;;;;4997898;28;20671;-87
2023/04/05 07:50:02;;;;;;;8.48;5.93;;;15.10;95.20;;;;;;4976377;28;20344;-87
2023/04/05 07:52:27;;;;;;;7.38;5.63;;;15.50;94.90;;;;;;4977720;28;20051;-86
2023/04/05 07:54:53;;;;;;;8.00;6.17;;;15.80;94.70;;;;;;4998282;28;20025;-87
2023/04/05 07:57:19;;;;;;;8.98;6.22;;;16.20;94.50;;;;;;5015673;28;20045;-88
2023/04/05 07:59:46;;;;;;;7.17;5.27;;;16.50;94.20;;;;;;4976322;28;20035;-88
2023/04/05 08:02:12;;;;;;;8.90;6.20;;;16.70;93.50;;;;;;5024663;28;20504;-88
2023/04/05 08:04:38;;;;;;;9.35;6.10;;;17.00;93.10;;;;;;4996967;28;20032;-89
2023/04/05 08:07:03;;;;;;;8.97;5.87;;;17.20;93.20;;;;;;4994713;28;20037;-87
2023/04/05 08:09:29;;;;;;;8.55;5.47;;;17.40;93.20;;;;;;4999493;28;20487;-88
2023/04/05 08:11:56;;;;;;;8.20;5.73;;;17.70;93.40;;;;;;4991804;28;20041;-88
2023/04/05 08:14:22;;;;;;;9.70;6.00;;;18.00;93.40;;;;;;5014413;28;20037;-87
2023/04/05 08:16:49;;;;;;;7.28;5.30;;;18.30;93.10;;;;;;4983587;28;20255;-86
2023/04/05 08:19:15;;;;;;;7.45;5.18;;;18.50;93.20;;;;;;5004055;28;20036;-87
2023/04/05 08:21:41;;;;;;;8.07;5.20;;;18.80;92.90;;;;;;4974363;28;20021;-87
2023/04/05 08:24:06;;;;;;;8.10;5.32;;;18.90;92.80;;;;;;4986289;28;20102;-88
2023/04/05 08:26:32;;;;;;;9.00;5.30;;;19.10;92.40;;;;;;5030982;28;20306;-88
2023/04/05 08:28:58;;;;;;;5.88;4.90;;;19.30;92.50;;;;;;4987801;28;20288;-87
2023/04/05 08:31:23;;;;;;;6.20;4.63;;;19.60;92.30;;;;;;4983624;28;20270;-86
2023/04/05 08:33:49;;;;;;;5.75;4.55;;;19.80;92.70;;;;;;4969870;28;20503;-88
2023/04/05 08:36:15;;;;;;;5.67;4.17;;;20.00;92.90;;;;;;4973358;28;20507;-87
2023/04/05 08:38:41;;;;;;;5.40;3.97;;;20.20;92.60;;;;;;4994276;28;20017;-89
2023/04/05 08:41:32;;;;;;;5.15;3.80;;;20.50;92.60;;;;;;4982421;28;20537;-89
2023/04/05 08:44:04;;;;;;;6.77;3.90;;;20.80;87.90;;;;;;4988866;28;20025;-88
2023/04/05 08:46:31;;;;;;;5.63;4.15;;;21.10;91.50;;;;;;5000526;28;20053;-87
2023/04/05 08:48:57;;;;;;;6.25;4.18;;;21.40;92.30;;;;;;4999013;28;20056;-88
2023/04/05 08:51:25;;;;;;;4.80;3.85;;;21.60;92.20;;;;;;4991861;28;20032;-88
2023/04/05 08:53:51;;;;;;;4.68;3.88;;;21.80;91.60;;;;;;4976968;28;20029;-88
2023/04/05 08:56:26;;;;;;;4.87;3.90;;;22.10;92.20;;;;;;4986581;28;20064;-86
2023/04/05 08:58:55;;;;;;;5.97;4.30;;;22.30;90.50;;;;;;4981703;28;20025;-88
2023/04/05 09:01:21;;;;;;;4.63;3.90;;;22.50;89.60;;;;;;4986454;28;20021;-89
2023/04/05 09:03:48;;;;;;;6.72;4.43;;;22.60;90.90;;;;;;4998718;28;20095;-87
2023/04/05 09:06:15;;;;;;;5.10;3.80;;;22.80;89.80;;;;;;5002653;28;20116;-88
2023/04/05 09:08:41;;;;;;;5.23;3.80;;;22.90;90.90;;;;;;4995687;28;20041;-88
2023/04/05 09:11:07;;;;;;;4.38;3.22;;;23.00;91.10;;;;;;4986781;28;20028;-89
2023/04/05 09:13:33;;;;;;;4.25;3.17;;;23.20;91.60;;;;;;5001058;28;20024;-86
2023/04/05 09:16:01;;;;;;;5.00;2.87;;;23.40;91.30;;;;;;4988020;28;21257;-89
2023/04/05 09:18:26;;;;;;;4.95;3.00;;;23.60;90.70;;;;;;4998395;28;20589;-86
2023/04/05 09:21:01;;;;;;;6.07;3.20;;;23.70;91.20;;;;;;5003652;28;20060;-87
2023/04/05 09:23:28;;;;;;;5.40;3.05;;;24.00;89.30;;;;;;4988315;28;20025;-86
2023/04/05 09:25:54;;;;;;;4.28;2.80;;;24.20;90.70;;;;;;4983345;28;20682;-88
2023/04/05 09:28:19;;;;;;;3.35;2.78;;;24.30;90.90;;;;;;5003385;28;20187;-87
2023/04/05 09:30:46;;;;;;;3.20;2.60;;;24.50;90.10;;;;;;5008705;28;20032;-86
2023/04/05 09:33:17;;;;;;;3.72;2.80;;;24.60;89.80;;;;;;5011844;28;20214;-87
2023/04/05 09:35:43;;;;;;;3.65;2.85;;;24.70;87.20;;;;;;4987183;28;20033;-87
2023/04/05 09:38:09;;;;;;;3.60;3.00;;;24.90;90.70;;;;;;5015089;28;20087;-89
2023/04/05 09:40:45;;;;;;;4.07;3.28;;;25.10;91.20;;;;;;4960496;28;20025;-89
2023/04/05 09:43:12;;;;;;;4.23;3.23;;;25.30;82.50;;;;;;4976833;28;20026;-87
2023/04/05 09:45:42;;;;;;;4.57;3.35;;;25.50;90.40;;;;;;4970726;28;20498;-87
2023/04/05 09:48:08;;;;;;;6.22;3.83;;;25.60;86.10;;;;;;5009494;28;20429;-86
2023/04/05 09:50:35;;;;;;;4.35;3.42;;;25.50;87.80;;;;;;4983819;28;20155;-89
2023/04/05 09:53:06;;;;;;;4.10;3.33;;;25.60;88.80;;;;;;5005224;28;20108;-86
2023/04/05 09:55:32;;;;;;;3.90;3.17;;;25.60;84.30;;;;;;4991931;28;20037;-89
2023/04/05 09:57:58;;;;;;;4.95;3.75;;;25.70;89.90;;;;;;4973703;28;20029;-87
2023/04/05 10:00:24;;;;;;;4.03;3.05;;;25.80;89.80;;;;;;5002525;28;20395;-89
2023/04/05 10:02:55;;;;;;;5.13;3.13;;;26.00;90.20;;;;;;4977798;28;20687;-87
2023/04/05 10:05:27;;;;;;;4.50;3.22;;;26.20;85.90;;;;;;4993675;28;20036;-89
2023/04/05 10:07:54;;;;;;;4.20;3.05;;;26.50;85.90;;;;;;4981195;28;20491;-86
2023/04/05 10:10:22;;;;;;;4.03;3.13;;;26.60;89.80;;;;;;4986922;28;20039;-90
2023/04/05 10:12:48;;;;;;;4.23;3.40;;;26.90;89.70;;;;;;4976462;28;20408;-86
2023/04/05 10:15:15;;;;;;;4.03;3.08;;;27.10;89.00;;;;;;4993526;28;20021;-88
2023/04/05 10:18:02;;;;;;;4.30;3.35;;;27.30;87.70;;;;;;4980729;28;20203;-86
2023/04/05 10:20:35;;;;;;;3.95;3.03;;;27.30;82.70;;;;;;5004833;28;20615;-87
2023/04/05 10:23:08;;;;;;;4.10;3.28;;;27.40;86.60;;;;;;5001133;28;20478;-86
2023/04/05 10:25:53;;;;;;;4.03;3.40;;;27.40;81.90;;;;;;5005159;28;20050;-86
2023/04/05 10:28:32;;;;;;;4.85;3.55;;;27.30;77.10;;;;;;4966130;28;20073;-89
2023/04/05 10:31:11;;;;;;;4.40;3.38;;;27.30;75.60;;;;;;4996128;28;20070;-87
2023/04/05 10:33:46;;;;;;;4.13;3.08;;;27.30;79.00;;;;;;5007576;28;20139;-87
2023/04/05 10:36:21;;;;;;;4.22;3.40;;;27.30;78.40;;;;;;4998787;28;20020;-88
2023/04/05 10:38:52;;;;;;;3.83;3.37;;;27.30;75.30;;;;;;4975371;28;20025;-88
2023/04/05 10:41:18;;;;;;;4.32;2.90;;;27.30;78.00;;;;;;4996913;28;20061;-88
2023/04/05 10:43:45;;;;;;;4.75;3.58;;;27.30;83.70;;;;;;4967325;28;20044;-87
2023/04/05 10:46:12;;;;;;;5.07;3.55;;;27.30;81.30;;;;;;5001520;28;20025;-88
2023/04/05 10:48:57;;;;;;;5.23;3.63;;;27.20;82.00;;;;;;5010292;28;20035;-88
2023/04/05 10:51:25;;;;;;;3.88;3.25;;;27.10;73.20;;;;;;5013122;28;20178;-87
2023/04/05 10:53:51;;;;;;;3.47;2.80;;;27.10;81.60;;;;;;4983097;28;20433;-87
2023/04/05 10:56:18;;;;;;;4.47;3.60;;;27.00;81.80;;;;;;5029774;28;20052;-88
2023/04/05 10:58:46;;;;;;;4.28;3.35;;;27.00;80.10;;;;;;4992454;28;20388;-87
2023/04/05 11:01:16;;;;;;;4.33;3.07;;;27.00;79.50;;;;;;4976824;28;20082;-88
2023/04/05 11:03:54;;;;;;;5.22;3.40;;;27.00;80.80;;;;;;5001251;28;20020;-90
2023/04/05 11:06:31;;;;;;;4.57;3.58;;;27.10;81.30;;;;;;4988287;28;20033;-87
2023/04/05 11:09:06;;;;;;;4.40;3.58;;;27.30;77.30;;;;;;4974497;28;20224;-87
2023/04/05 11:11:38;;;;;;;5.20;3.65;;;27.50;83.60;;;;;;5012756;28;20017;-87
2023/04/05 11:14:26;;;;;;;4.00;3.43;;;27.90;78.10;;;;;;4988100;28;20036;-86
2023/04/05 11:16:58;;;;;;;4.07;3.17;;;28.20;75.40;;;;;;5015478;28;20057;-87
2023/04/05 11:19:42;;;;;;;5.35;3.92;;;28.50;82.70;;;;;;5001888;28;20037;-89
2023/04/05 11:22:09;;;;;;;4.30;3.67;;;29.00;73.10;;;;;;4989182;28;20465;-88
2023/04/05 11:24:52;;;;;;;5.28;3.65;;;29.20;80.70;;;;;;4988108;28;20694;-87
2023/04/05 11:27:58;;;;;;;5.10;3.83;;;29.30;65.30;;;;;;5014461;28;20025;-87
2023/04/05 11:30:47;;;;;;;5.72;3.90;;;29.40;62.40;;;;;;4993389;28;20635;-88
2023/04/05 11:33:48;;;;;;;4.75;3.80;;;29.30;62.70;;;;;;4978561;28;20041;-87
2023/04/05 11:36:30;;;;;;;4.95;3.20;;;29.10;60.70;;;;;;4996072;28;20041;-87
2023/04/05 11:39:18;;;;;;;5.28;3.80;;;29.00;63.20;;;;;;4988627;28;20024;-89
2023/04/05 11:41:52;;;;;;;4.70;3.17;;;28.90;58.50;;;;;;4981237;28;20513;-86
2023/04/05 11:44:18;;;;;;;4.88;3.47;;;28.80;68.60;;;;;;4988491;28;20402;-88
2023/04/05 11:46:47;;;;;;;4.72;3.67;;;28.70;71.20;;;;;;4978764;28;20616;-87
2023/04/05 11:49:13;;;;;;;4.78;3.40;;;28.60;67.40;;;;;;4991722;28;20071;-88
2023/04/05 11:51:43;;;;;;;4.70;3.90;;;28.60;69.80;;;;;;5026578;28;20164;-88
2023/04/05 11:54:09;;;;;;;4.43;3.63;;;28.60;66.40;;;;;;5019035;28;20029;-86
2023/04/05 11:56:35;;;;;;;5.07;3.97;;;28.60;68.90;;;;;;5003216;28;20287;-88
2023/04/05 11:59:01;;;;;;;4.68;3.90;;;28.50;67.90;;;;;;4992014;28;20039;-88
2023/04/05 12:01:27;;;;;;;4.70;3.53;;;28.30;67.50;;;;;;4988832;28;20060;-88
2023/04/05 12:03:56;;;;;;;4.47;3.45;;;28.20;67.50;;;;;;5008229;28;20024;-87
2023/04/05 12:06:23;;;;;;;4.45;3.75;;;28.10;64.20;;;;;;4982794;28;20029;-88
2023/04/05 12:08:49;;;;;;;4.63;3.40;;;28.00;65.70;;;;;;5004020;28;20331;-87
2023/04/05 12:11:24;;;;;;;4.93;3.65;;;28.00;65.40;;;;;;4984974;28;20099;-89
2023/04/05 12:13:54;;;;;;;4.60;3.50;;;27.90;64.00;;;;;;5012086;28;20029;-88
2023/04/05 12:16:20;;;;;;;5.25;3.80;;;27.80;62.70;;;;;;4982936;28;20021;-89
2023/04/05 12:18:58;;;;;;;4.78;3.38;;;27.90;65.90;;;;;;4984881;28;20259;-86
2023/04/05 12:21:26;;;;;;;4.73;3.67;;;27.90;61.60;;;;;;4999111;28;20021;-87
2023/04/05 12:23:52;;;;;;;4.18;3.50;;;28.00;65.40;;;;;;5006128;28;20222;-86
2023/04/05 12:26:20;;;;;;;4.53;3.63;;;28.10;66.10;;;;;;5002964;28;20557;-89
2023/04/05 12:29:00;;;;;;;4.18;3.22;;;28.20;65.50;;;;;;5004851;28;20187;-84
2023/04/05 12:31:38;;;;;;;5.32;3.60;;;28.30;59.60;;;;;;5010932;28;20021;-89
2023/04/05 12:34:04;;;;;;;4.80;3.37;;;28.40;60.40;;;;;;4996151;28;20083;-86
2023/04/05 12:36:33;;;;;;;4.78;3.70;;;28.60;66.70;;;;;;5021108;28;20109;-88
2023/04/05 12:39:00;;;;;;;5.07;3.65;;;28.80;65.30;;;;;;5007464;28;21849;-87
2023/04/05 12:41:30;;;;;;;4.35;3.60;;;28.90;63.40;;;;;;5018299;28;20017;-88
2023/04/05 12:44:00;;;;;;;4.53;3.63;;;28.90;61.30;;;;;;4996643;28;20058;-87
2023/04/05 12:46:41;;;;;;;4.60;3.43;;;28.80;61.70;;;;;;4980770;28;20031;-88
2023/04/05 12:49:17;;;;;;;3.75;3.20;;;28.70;56.80;;;;;;5021687;28;20040;-86
2023/04/05 12:51:45;;;;;;;4.72;3.55;;;28.80;55.60;;;;;;5014781;28;20261;-86
2023/04/05 12:54:21;;;;;;;4.30;3.20;;;28.80;61.50;;;;;;4995712;28;20067;-88
2023/04/05 12:56:53;;;;;;;4.55;3.45;;;28.90;56.80;;;;;;4983670;28;20258;-85
2023/04/05 12:59:19;;;;;;;4.90;3.33;;;28.90;60.00;;;;;;5002162;28;20118;-85